createdAt,value
2023-11-08T00:01:24.546Z,9.77
2023-11-08T00:03:51.903Z,9.75
2023-11-08T00:06:19.339Z,9.72
2023-11-08T00:08:48.616Z,9.69
2023-11-08T00:11:16.930Z,9.67
2023-11-08T00:13:44.691Z,9.70
2023-11-08T00:16:11.962Z,9.69
2023-11-08T00:18:39.289Z,9.70
2023-11-08T00:21:07.994Z,9.75
2023-11-08T00:23:35.304Z,9.79
2023-11-08T00:26:02.694Z,9.82
2023-11-08T00:28:29.910Z,9.84
2023-11-08T00:30:57.166Z,9.83
2023-11-08T00:33:25.910Z,9.79
2023-11-08T00:35:53.204Z,9.78
2023-11-08T00:38:20.475Z,9.75
2023-11-08T00:40:47.829Z,9.75
2023-11-08T00:43:15.201Z,9.73
2023-11-08T00:45:42.663Z,9.69
2023-11-08T00:48:10.074Z,9.67
2023-11-08T00:50:37.479Z,9.64
2023-11-08T00:53:05.198Z,9.52
2023-11-08T00:55:34.223Z,9.47
2023-11-08T00:58:01.649Z,9.42
2023-11-08T01:00:29.037Z,9.40
2023-11-08T01:02:56.451Z,9.35
2023-11-08T01:05:24.057Z,9.36
2023-11-08T01:07:51.331Z,9.29
2023-11-08T01:10:18.841Z,9.30
2023-11-08T01:12:46.280Z,9.33
2023-11-08T01:15:13.664Z,9.36
2023-11-08T01:17:41.102Z,9.33
2023-11-08T01:20:08.644Z,9.38
2023-11-08T01:22:36.127Z,9.38
2023-11-08T01:25:04.216Z,9.38
2023-11-08T01:27:31.714Z,9.39
2023-11-08T01:29:59.973Z,9.43
2023-11-08T01:32:27.824Z,9.41
2023-11-08T01:34:55.148Z,9.44
2023-11-08T01:37:22.511Z,9.45
2023-11-08T01:39:49.816Z,9.41
2023-11-08T01:42:19.341Z,9.43
2023-11-08T01:44:46.671Z,9.44
2023-11-08T01:47:15.940Z,9.42
2023-11-08T01:49:45.201Z,9.40
2023-11-08T01:52:13.029Z,9.30
2023-11-08T01:54:42.579Z,9.27
2023-11-08T01:57:09.859Z,9.19
2023-11-08T01:59:37.490Z,9.13
2023-11-08T02:02:04.966Z,9.08
2023-11-08T02:04:33.349Z,9.09
2023-11-08T02:07:01.816Z,9.12
2023-11-08T02:09:32.209Z,9.13
2023-11-08T02:12:01.861Z,9.14
2023-11-08T02:14:29.869Z,9.16
2023-11-08T02:16:57.285Z,9.19
2023-11-08T02:19:24.732Z,9.21
2023-11-08T02:22:12.115Z,9.22
2023-11-08T02:24:39.601Z,9.24
2023-11-08T02:27:07.356Z,9.28
2023-11-08T02:29:34.653Z,9.27
2023-11-08T02:32:02.090Z,9.28
2023-11-08T02:34:30.063Z,9.37
2023-11-08T02:36:57.405Z,9.38
2023-11-08T02:39:24.759Z,9.39
2023-11-08T02:41:52.461Z,9.39
2023-11-08T02:44:20.221Z,9.38
2023-11-08T02:46:47.504Z,9.37
2023-11-08T02:49:15.241Z,9.35
2023-11-08T02:51:44.738Z,9.34
2023-11-08T02:54:12.104Z,9.30
2023-11-08T02:56:39.873Z,9.24
2023-11-08T02:59:07.222Z,9.18
2023-11-08T03:01:34.497Z,9.15
2023-11-08T03:04:02.450Z,9.13
2023-11-08T03:06:30.129Z,9.06
2023-11-08T03:08:57.487Z,9.01
2023-11-08T03:11:24.995Z,9.00
2023-11-08T03:13:52.318Z,8.98
2023-11-08T03:16:19.615Z,8.95
2023-11-08T03:18:46.953Z,8.91
2023-11-08T03:21:14.234Z,8.92
2023-11-08T03:23:41.574Z,8.99
2023-11-08T03:26:09.741Z,9.02
2023-11-08T03:28:37.106Z,9.04
2023-11-08T03:31:04.511Z,9.09
2023-11-08T03:33:31.814Z,9.14
2023-11-08T03:35:59.209Z,9.14
2023-11-08T03:38:26.450Z,9.16
2023-11-08T03:40:53.756Z,9.15
2023-11-08T03:43:21.031Z,9.17
2023-11-08T03:45:48.341Z,9.17
2023-11-08T03:48:15.743Z,9.17
2023-11-08T03:50:43.230Z,9.16
2023-11-08T03:53:11.404Z,9.18
2023-11-08T03:55:40.005Z,9.19
2023-11-08T03:58:07.321Z,9.14
2023-11-08T04:00:34.664Z,9.29
2023-11-08T04:03:04.769Z,9.34
2023-11-08T04:05:32.182Z,9.35
2023-11-08T04:07:59.547Z,9.36
2023-11-08T04:10:27.219Z,9.29
2023-11-08T04:12:54.574Z,9.40
2023-11-08T04:15:21.878Z,9.41
2023-11-08T04:17:49.507Z,9.43
2023-11-08T04:20:16.970Z,9.44
2023-11-08T04:22:44.345Z,9.48
2023-11-08T04:25:12.580Z,9.53
2023-11-08T04:27:40.327Z,9.54
2023-11-08T04:30:07.951Z,9.53
2023-11-08T04:32:35.243Z,9.52
2023-11-08T04:35:02.953Z,9.54
2023-11-08T04:37:31.701Z,9.55
2023-11-08T04:39:59.015Z,9.55
2023-11-08T04:42:27.307Z,9.54
2023-11-08T04:44:54.603Z,9.57
2023-11-08T04:47:22.328Z,9.58
2023-11-08T04:49:49.955Z,9.60
2023-11-08T04:52:18.521Z,9.57
2023-11-08T04:54:54.028Z,9.59
2023-11-08T04:57:22.546Z,9.58
2023-11-08T04:59:50.641Z,9.58
2023-11-08T05:02:18.526Z,9.63
2023-11-08T05:04:49.573Z,9.56
2023-11-08T05:07:19.435Z,9.43
2023-11-08T05:09:47.885Z,9.53
2023-11-08T05:12:15.189Z,9.55
2023-11-08T05:14:42.643Z,9.53
2023-11-08T05:17:09.949Z,9.53
2023-11-08T05:19:37.329Z,9.52
2023-11-08T05:22:05.109Z,9.54
2023-11-08T05:24:32.482Z,9.57
2023-11-08T05:27:00.744Z,9.58
2023-11-08T05:29:28.075Z,9.60
2023-11-08T05:31:55.435Z,9.64
2023-11-08T05:34:23.178Z,9.64
2023-11-08T05:36:50.672Z,9.68
2023-11-08T05:39:26.252Z,9.75
2023-11-08T05:41:54.244Z,9.78
2023-11-08T05:44:21.728Z,9.79
2023-11-08T05:46:50.616Z,9.79
2023-11-08T05:49:18.532Z,9.82
2023-11-08T05:51:45.968Z,9.84
2023-11-08T05:54:13.514Z,9.89
2023-11-08T05:56:40.828Z,9.90
2023-11-08T05:59:08.367Z,9.89
2023-11-08T06:01:35.764Z,9.92
2023-11-08T06:04:05.220Z,9.95
2023-11-08T06:06:32.583Z,9.98
2023-11-08T06:08:59.843Z,9.98
2023-11-08T06:11:28.137Z,9.96
2023-11-08T06:13:55.495Z,9.95
2023-11-08T06:16:22.741Z,9.98
2023-11-08T06:18:50.284Z,9.97
2023-11-08T06:21:19.660Z,9.95
2023-11-08T06:23:47.007Z,9.94
2023-11-08T06:26:17.857Z,9.95
2023-11-08T06:28:45.606Z,9.94
2023-11-08T06:31:13.473Z,9.98
2023-11-08T06:33:40.988Z,10.02
2023-11-08T06:36:08.429Z,10.09
2023-11-08T06:38:35.802Z,10.14
2023-11-08T06:41:03.171Z,10.17
2023-11-08T06:43:30.452Z,10.17
2023-11-08T06:45:57.869Z,10.19
2023-11-08T06:48:26.631Z,10.24
2023-11-08T06:50:54.053Z,10.14
2023-11-08T06:53:21.386Z,10.21
2023-11-08T06:55:48.766Z,10.23
2023-11-08T06:58:16.079Z,10.22
2023-11-08T07:00:44.332Z,10.21
2023-11-08T07:03:11.766Z,10.25
2023-11-08T07:05:39.636Z,10.30
2023-11-08T07:08:09.765Z,10.35
2023-11-08T07:10:37.230Z,10.40
2023-11-08T07:13:04.564Z,10.45
2023-11-08T07:15:32.104Z,10.50
2023-11-08T07:17:59.593Z,10.57
2023-11-08T07:20:26.910Z,10.69
2023-11-08T07:22:54.269Z,10.73
2023-11-08T07:25:21.570Z,10.80
2023-11-08T07:27:49.080Z,10.89
2023-11-08T07:30:18.112Z,10.92
2023-11-08T07:32:49.289Z,11.00
2023-11-08T07:35:16.674Z,11.09
2023-11-08T07:37:43.912Z,11.14
2023-11-08T07:40:14.128Z,11.16
2023-11-08T07:42:42.016Z,11.11
2023-11-08T07:45:09.870Z,11.10
2023-11-08T07:47:37.263Z,11.10
2023-11-08T07:50:06.307Z,11.07
2023-11-08T07:52:33.667Z,11.02
2023-11-08T07:55:01.027Z,10.99
2023-11-08T07:57:28.423Z,10.98
2023-11-08T07:59:56.149Z,10.98
2023-11-08T08:02:23.478Z,10.99
2023-11-08T08:04:50.894Z,11.09
2023-11-08T08:07:18.287Z,11.11
2023-11-08T08:09:46.287Z,11.21
2023-11-08T08:12:14.215Z,11.37
2023-11-08T08:14:41.943Z,11.43
2023-11-08T08:17:09.790Z,11.44
2023-11-08T08:19:37.379Z,11.44
2023-11-08T08:22:05.656Z,11.46
2023-11-08T08:24:33.178Z,11.44
2023-11-08T08:27:00.835Z,11.37
2023-11-08T08:29:29.662Z,11.27
2023-11-08T08:31:56.983Z,11.19
2023-11-08T08:34:30.809Z,11.03
2023-11-08T08:36:59.202Z,10.90
2023-11-08T08:39:29.635Z,10.83
2023-11-08T08:41:58.416Z,10.76
2023-11-08T08:44:25.774Z,10.70
2023-11-08T08:46:53.282Z,10.70
2023-11-08T08:49:22.968Z,10.72
2023-11-08T08:51:51.132Z,10.76
2023-11-08T08:54:19.589Z,10.79
2023-11-08T08:56:49.684Z,10.87
2023-11-08T08:59:17.220Z,11.01
2023-11-08T09:01:44.812Z,11.17
2023-11-08T09:04:12.338Z,11.30
2023-11-08T09:06:40.245Z,11.34
2023-11-08T09:09:14.605Z,11.39
2023-11-08T09:11:42.133Z,11.43
2023-11-08T09:14:10.037Z,11.48
2023-11-08T09:16:39.467Z,11.52
2023-11-08T09:19:11.271Z,11.60
2023-11-08T09:21:39.289Z,11.76
2023-11-08T09:24:08.223Z,12.04
2023-11-08T09:26:36.112Z,12.36
2023-11-08T09:29:04.404Z,12.65
2023-11-08T09:31:31.837Z,12.69
2023-11-08T09:34:01.215Z,12.62
2023-11-08T09:36:28.885Z,12.49
2023-11-08T09:38:56.603Z,12.40
2023-11-08T09:41:25.381Z,12.40
2023-11-08T09:43:53.836Z,12.37
2023-11-08T09:46:22.061Z,12.27
2023-11-08T09:48:55.774Z,12.19
2023-11-08T09:51:23.346Z,12.14
2023-11-08T09:53:51.433Z,12.08
2023-11-08T09:56:19.352Z,12.05
2023-11-08T09:58:47.243Z,12.02
2023-11-08T10:01:16.796Z,11.95
2023-11-08T10:03:45.200Z,11.96
2023-11-08T10:06:12.849Z,12.03
2023-11-08T10:08:40.299Z,12.07
2023-11-08T10:11:07.830Z,12.12
2023-11-08T10:13:52.969Z,12.16
2023-11-08T10:16:22.335Z,12.11
2023-11-08T10:19:36.781Z,12.07
2023-11-08T10:21:50.438Z,12.05
2023-11-08T10:24:18.545Z,12.05
2023-11-08T10:26:47.588Z,12.03
2023-11-08T10:29:15.167Z,12.09
2023-11-08T10:31:43.272Z,12.11
2023-11-08T10:34:14.130Z,12.16
2023-11-08T10:36:41.663Z,12.16
2023-11-08T10:39:15.496Z,12.14
2023-11-08T10:41:44.433Z,12.16
2023-11-08T10:44:13.206Z,12.22
2023-11-08T10:46:41.538Z,12.29
2023-11-08T10:49:10.271Z,12.36
2023-11-08T10:51:43.722Z,12.33
2023-11-08T10:54:11.178Z,12.26
2023-11-08T10:56:42.059Z,12.17
2023-11-08T10:59:11.543Z,12.14
2023-11-08T11:01:39.723Z,12.12
2023-11-08T11:04:08.811Z,12.12
2023-11-08T11:06:37.242Z,12.16
2023-11-08T11:09:09.919Z,12.15
2023-11-08T11:11:43.833Z,12.18
2023-11-08T11:14:31.465Z,12.22
2023-11-08T11:17:04.059Z,12.25
2023-11-08T11:19:32.438Z,12.30
2023-11-08T11:22:06.251Z,12.36
2023-11-08T11:24:33.610Z,12.35
2023-11-08T11:27:03.078Z,12.31
2023-11-08T11:29:30.596Z,12.21
2023-11-08T11:31:58.329Z,12.08
2023-11-08T11:34:30.573Z,12.03
2023-11-08T11:37:15.103Z,12.01
2023-11-08T11:39:50.463Z,11.96
2023-11-08T11:42:21.951Z,11.97
2023-11-08T11:44:50.690Z,11.96
2023-11-08T11:47:20.589Z,11.95
2023-11-08T11:49:49.331Z,11.87
2023-11-08T11:52:18.322Z,11.77
2023-11-08T11:54:48.366Z,11.72
2023-11-08T11:57:17.015Z,11.75
2023-11-08T11:59:45.592Z,11.66
2023-11-08T12:02:13.049Z,11.56
2023-11-08T12:04:41.128Z,11.53
2023-11-08T12:07:10.389Z,11.50
2023-11-08T12:09:39.154Z,11.49
2023-11-08T12:12:08.207Z,11.52
2023-11-08T12:14:36.990Z,11.53
2023-11-08T12:17:08.862Z,11.53
2023-11-08T12:19:36.607Z,11.55
2023-11-08T12:22:06.534Z,11.55
2023-11-08T12:24:34.860Z,11.56
2023-11-08T12:27:02.981Z,11.57
2023-11-08T12:29:30.755Z,11.54
2023-11-08T12:31:58.629Z,11.52
2023-11-08T12:34:27.173Z,11.52
2023-11-08T12:36:58.274Z,11.54
2023-11-08T12:39:28.928Z,11.54
2023-11-08T12:41:56.890Z,11.52
2023-11-08T12:44:25.616Z,11.48
2023-11-08T12:46:58.087Z,11.42
2023-11-08T12:49:27.260Z,11.36
2023-11-08T12:51:55.196Z,11.29
2023-11-08T12:54:23.797Z,11.29
2023-11-08T12:56:51.397Z,11.22
2023-11-08T12:59:20.071Z,11.14
2023-11-08T13:01:51.878Z,11.22
2023-11-08T13:04:20.933Z,11.06
2023-11-08T13:06:49.612Z,11.02
2023-11-08T13:09:17.304Z,10.97
2023-11-08T13:11:44.862Z,10.86
2023-11-08T13:14:12.653Z,10.78
2023-11-08T13:16:40.590Z,10.68
2023-11-08T13:19:08.295Z,10.61
2023-11-08T13:21:35.873Z,10.45
2023-11-08T13:24:07.203Z,10.41
2023-11-08T13:26:35.797Z,10.33
2023-11-08T13:29:03.984Z,10.31
2023-11-08T13:31:31.591Z,10.31
2023-11-08T13:33:59.335Z,10.26
2023-11-08T13:36:29.905Z,10.20
2023-11-08T13:38:58.253Z,10.15
2023-11-08T13:41:26.225Z,10.13
2023-11-08T13:43:53.888Z,10.15
2023-11-08T13:46:22.875Z,10.17
2023-11-08T13:48:50.594Z,10.28
2023-11-08T13:51:18.214Z,10.25
2023-11-08T13:53:45.849Z,10.24
2023-11-08T13:56:13.526Z,10.25
2023-11-08T13:58:41.126Z,10.28
2023-11-08T14:01:11.881Z,10.38
2023-11-08T14:03:40.298Z,10.36
2023-11-08T14:06:09.221Z,10.30
2023-11-08T14:08:39.049Z,10.26
2023-11-08T14:11:06.786Z,10.25
2023-11-08T14:13:34.642Z,10.30
2023-11-08T14:16:02.307Z,10.30
2023-11-08T14:18:29.760Z,10.26
2023-11-08T14:20:58.038Z,10.24
2023-11-08T14:23:25.509Z,10.23
2023-11-08T14:25:52.925Z,10.18
2023-11-08T14:28:20.702Z,10.14
2023-11-08T14:30:48.426Z,10.15
2023-11-08T14:33:18.117Z,10.21
2023-11-08T14:35:46.026Z,10.19
2023-11-08T14:38:13.796Z,10.21
2023-11-08T14:40:42.112Z,10.18
2023-11-08T14:43:11.141Z,10.17
2023-11-08T14:45:38.867Z,10.11
2023-11-08T14:48:06.910Z,10.04
2023-11-08T14:50:35.095Z,10.05
2023-11-08T14:53:03.737Z,9.99
2023-11-08T14:55:31.414Z,9.96
2023-11-08T14:57:59.068Z,9.81
2023-11-08T15:00:27.259Z,9.74
2023-11-08T15:02:57.540Z,9.60
2023-11-08T15:05:25.079Z,9.60
2023-11-08T15:09:47.564Z,9.48
2023-11-08T15:10:41.174Z,9.37
2023-11-08T15:13:09.007Z,9.35
2023-11-08T15:15:36.503Z,9.38
2023-11-08T15:18:04.053Z,9.33
2023-11-08T15:20:31.539Z,9.37
2023-11-08T15:22:59.190Z,9.33
2023-11-08T15:25:26.719Z,9.31
2023-11-08T15:27:54.375Z,9.33
2023-11-08T15:30:21.934Z,9.38
2023-11-08T15:32:49.540Z,9.37
2023-11-08T15:35:17.050Z,9.31
2023-11-08T15:37:44.662Z,9.34
2023-11-08T15:40:13.846Z,9.33
2023-11-08T15:42:41.526Z,9.41
2023-11-08T15:45:09.607Z,9.35
2023-11-08T15:47:37.376Z,9.23
2023-11-08T15:50:06.579Z,9.16
2023-11-08T15:52:34.076Z,9.12
2023-11-08T15:55:01.561Z,9.09
2023-11-08T15:57:29.994Z,9.07
2023-11-08T15:59:57.682Z,9.05
2023-11-08T16:02:25.162Z,9.07
2023-11-08T16:04:52.881Z,9.07
2023-11-08T16:07:20.677Z,9.10
2023-11-08T16:09:48.226Z,9.05
2023-11-08T16:12:15.772Z,9.08
2023-11-08T16:14:43.449Z,9.05
2023-11-08T16:17:10.889Z,9.08
2023-11-08T16:19:38.298Z,9.08
2023-11-08T16:22:05.825Z,9.06
2023-11-08T16:24:33.249Z,9.17
2023-11-08T16:27:00.945Z,9.14
2023-11-08T16:29:50.921Z,9.18
2023-11-08T16:32:35.126Z,9.25
2023-11-08T16:35:03.880Z,9.21
2023-11-08T16:37:31.606Z,9.24
2023-11-08T16:39:59.051Z,9.23
2023-11-08T16:42:27.125Z,9.24
2023-11-08T16:44:54.710Z,9.27
2023-11-08T16:47:23.276Z,9.35
2023-11-08T16:49:52.159Z,9.32
2023-11-08T16:52:20.566Z,9.31
2023-11-08T16:54:48.130Z,9.29
2023-11-08T16:57:15.768Z,9.27
2023-11-08T16:59:43.333Z,9.25
2023-11-08T17:02:10.787Z,9.24
2023-11-08T17:04:38.987Z,9.33
2023-11-08T17:07:06.997Z,9.27
2023-11-08T17:09:38.732Z,9.21
2023-11-08T17:12:09.836Z,9.16
2023-11-08T17:14:37.916Z,9.14
2023-11-08T17:17:05.562Z,9.15
2023-11-08T17:19:33.206Z,9.12
2023-11-08T17:22:01.207Z,9.13
2023-11-08T17:24:28.670Z,9.10
2023-11-08T17:26:56.205Z,9.17
2023-11-08T17:29:23.707Z,9.21
2023-11-08T17:31:52.515Z,9.27
2023-11-08T17:34:20.289Z,9.24
2023-11-08T17:36:48.855Z,9.25
2023-11-08T17:39:16.558Z,9.25
2023-11-08T17:41:44.117Z,9.23
2023-11-08T17:44:12.634Z,9.23
2023-11-08T17:46:40.155Z,9.24
2023-11-08T17:49:07.952Z,9.27
2023-11-08T17:51:38.855Z,9.22
2023-11-08T17:54:07.240Z,9.22
2023-11-08T17:56:34.810Z,9.19
2023-11-08T17:59:02.384Z,9.22
2023-11-08T18:01:29.914Z,9.29
2023-11-08T18:03:57.440Z,9.33
2023-11-08T18:06:26.293Z,9.29
2023-11-08T18:08:54.572Z,9.34
2023-11-08T18:11:22.238Z,9.30
2023-11-08T18:13:50.192Z,9.37
2023-11-08T18:16:18.779Z,9.39
2023-11-08T18:18:46.544Z,9.40
2023-11-08T18:21:14.179Z,9.42
2023-11-08T18:23:42.918Z,9.40
2023-11-08T18:26:10.422Z,9.47
2023-11-08T18:28:37.970Z,9.40
2023-11-08T18:31:05.652Z,9.42
2023-11-08T18:33:33.203Z,9.40
2023-11-08T18:36:00.906Z,9.44
2023-11-08T18:38:31.594Z,9.42
2023-11-08T18:40:59.995Z,9.44
2023-11-08T18:43:27.732Z,9.37
2023-11-08T18:45:56.059Z,9.35
2023-11-08T18:48:26.013Z,9.39
2023-11-08T18:50:53.923Z,9.36
2023-11-08T18:53:21.758Z,9.40
2023-11-08T18:55:49.340Z,9.39
2023-11-08T18:58:20.720Z,9.42
2023-11-08T19:00:48.521Z,9.46
2023-11-08T19:03:16.275Z,9.51
2023-11-08T19:05:44.327Z,9.59
2023-11-08T19:08:12.268Z,9.60
2023-11-08T19:10:39.822Z,9.64
2023-11-08T19:13:07.517Z,9.67
2023-11-08T19:15:35.232Z,9.68
2023-11-08T19:18:04.946Z,9.69
2023-11-08T19:20:32.607Z,9.65
2023-11-08T19:23:07.985Z,9.66
2023-11-08T19:25:40.625Z,9.65
2023-11-08T19:28:11.461Z,9.68
2023-11-08T19:30:38.912Z,9.67
2023-11-08T19:33:07.497Z,9.68
2023-11-08T19:35:35.145Z,9.68
2023-11-08T19:38:03.651Z,9.67
2023-11-08T19:40:31.158Z,9.68
2023-11-08T19:42:58.598Z,9.62
2023-11-08T19:45:25.914Z,9.57
2023-11-08T19:47:53.257Z,9.55
2023-11-08T19:50:20.645Z,9.55
2023-11-08T19:52:48.595Z,9.53
2023-11-08T19:55:16.536Z,9.52
2023-11-08T19:57:45.459Z,9.53
2023-11-08T20:00:13.037Z,9.59
2023-11-08T20:02:40.726Z,9.57
2023-11-08T20:05:08.675Z,9.57
2023-11-08T20:07:35.992Z,9.56
2023-11-08T20:10:03.412Z,9.54
2023-11-08T20:12:31.056Z,9.51
2023-11-08T20:14:58.393Z,9.51
2023-11-08T20:17:26.698Z,9.51
2023-11-08T20:19:57.871Z,9.54
2023-11-08T20:22:25.362Z,9.58
2023-11-08T20:24:53.449Z,9.54
2023-11-08T20:27:21.413Z,9.61
2023-11-08T20:29:51.304Z,9.63
2023-11-08T20:32:18.604Z,9.65
2023-11-08T20:34:46.132Z,9.67
2023-11-08T20:37:14.571Z,9.68
2023-11-08T20:39:41.931Z,9.68
2023-11-08T20:42:09.231Z,9.67
2023-11-08T20:44:36.487Z,9.71
2023-11-08T20:47:03.867Z,9.73
2023-11-08T20:49:31.301Z,9.78
2023-11-08T20:51:59.344Z,9.80
2023-11-08T20:54:28.028Z,9.82
2023-11-08T20:56:55.412Z,9.79
2023-11-08T20:59:23.188Z,9.75
2023-11-08T21:01:50.444Z,9.78
2023-11-08T21:04:17.789Z,9.78
2023-11-08T21:06:45.230Z,9.79
2023-11-08T21:09:12.517Z,9.75
2023-11-08T21:11:39.848Z,9.71
2023-11-08T21:14:07.921Z,9.69
2023-11-08T21:16:35.320Z,9.69
2023-11-08T21:19:05.869Z,9.70
2023-11-08T21:21:33.874Z,9.68
2023-11-08T21:24:01.184Z,9.67
2023-11-08T21:26:28.536Z,9.66
2023-11-08T21:28:57.022Z,9.63
2023-11-08T21:31:24.394Z,9.60
2023-11-08T21:33:52.001Z,9.42
2023-11-08T21:36:19.371Z,9.51
2023-11-08T21:38:46.847Z,9.44
2023-11-08T21:41:14.603Z,9.36
2023-11-08T21:43:42.370Z,9.29
2023-11-08T21:46:10.124Z,9.22
2023-11-08T21:48:38.092Z,9.15
2023-11-08T21:51:06.932Z,9.09
2023-11-08T21:53:34.450Z,9.03
2023-11-08T21:56:01.954Z,8.98
2023-11-08T21:58:29.460Z,8.94
2023-11-08T22:00:57.048Z,8.85
2023-11-08T22:03:24.503Z,8.80
2023-11-08T22:05:52.137Z,8.75
2023-11-08T22:08:19.994Z,8.71
2023-11-08T22:10:48.026Z,8.64
2023-11-08T22:13:15.644Z,8.59
2023-11-08T22:15:43.287Z,8.57
2023-11-08T22:18:10.960Z,8.55
2023-11-08T22:20:38.525Z,8.53
2023-11-08T22:23:05.984Z,8.52
2023-11-08T22:25:33.543Z,8.50
2023-11-08T22:28:01.259Z,8.46
2023-11-08T22:30:28.787Z,8.45
2023-11-08T22:32:56.481Z,8.42
2023-11-08T22:35:23.983Z,8.39
2023-11-08T22:37:51.741Z,8.36
2023-11-08T22:40:19.366Z,8.34
2023-11-08T22:42:47.010Z,8.29
2023-11-08T22:45:14.531Z,8.25
2023-11-08T22:47:43.391Z,8.23
2023-11-08T22:50:12.200Z,8.19
2023-11-08T22:52:40.106Z,8.17
2023-11-08T22:55:08.070Z,8.15
2023-11-08T22:57:35.594Z,8.14
2023-11-08T23:00:03.458Z,8.12
2023-11-08T23:02:33.289Z,8.12
2023-11-08T23:05:00.905Z,8.13
2023-11-08T23:07:28.388Z,8.13
2023-11-08T23:09:56.058Z,8.14
2023-11-08T23:12:25.441Z,8.13
2023-11-08T23:14:58.872Z,8.12
2023-11-08T23:17:31.262Z,8.11
2023-11-08T23:19:58.939Z,8.09
2023-11-08T23:22:26.389Z,8.12
2023-11-08T23:24:54.003Z,8.11
2023-11-08T23:27:21.554Z,8.13
2023-11-08T23:29:49.013Z,8.15
2023-11-08T23:32:16.453Z,8.17
2023-11-08T23:34:43.924Z,8.19
2023-11-08T23:37:11.623Z,8.21
2023-11-08T23:39:39.048Z,8.21
2023-11-08T23:42:07.532Z,8.21
2023-11-08T23:44:35.174Z,8.23
2023-11-08T23:47:02.569Z,8.26
2023-11-08T23:49:29.969Z,8.28
2023-11-08T23:51:57.501Z,8.32
2023-11-08T23:54:25.022Z,8.35
2023-11-08T23:56:52.512Z,8.41
2023-11-08T23:59:20.030Z,8.44
